Latest Weather Observations for Mount Read

IDT60801

Issued at 10:35 am EDT Sunday 23 November 2014 (issued every 30 minutes, with the page automatically refreshed every 10 minutes)

About weather observations | Map of weather stations | Latest weather observations for TAS | Other Formats
Station Details ID: 097085 Name: MOUNT READ Lat: -41.84 Lon: 145.54 Height: 1119.5 m
Data from the previous 72 hours. | See also: Recent months at Mount Read
Date/Time
EDT
Temp
°C
App
Temp
°C
Dew
Point
Rel
Hum
%
Delta-T
°C
Wind Press
QNH
hPa
Press
MSL
hPa
Rain
since 9 am
mm
Dir
 
Spd
km/h
Gust
km/h
Spd
kts
Gust
kts
23/10:30am 6.3 3.3 6.2 99 0.0 NW 11 24 6 13 1011.1 1010.7 0.0
23/10:00am 6.0 3.0 5.9 99 0.0 WNW 11 19 6 10 1010.9 1010.5 0.0
23/09:30am 5.0 1.8 4.9 99 0.0 WNW 11 24 6 13 1010.6 1010.3 0.0
23/09:00am 5.2 0.9 5.1 99 0.0 W 17 26 9 14 1010.3 1009.9 2.8
23/08:30am 4.9 1.3 4.8 99 0.0 NW 13 20 7 11 1009.8 1009.4 2.8
23/08:00am 4.5 -0.3 4.4 99 0.0 W 19 24 10 13 1009.4 1009.0 2.8
23/07:30am 4.3 -0.6 4.2 99 0.0 WNW 19 30 10 16 1009.0 1008.6 2.8
23/07:00am 3.8 -1.2 3.7 99 0.0 W 19 24 10 13 1008.5 1008.1 2.8
23/06:30am 4.0 -1.5 3.9 99 0.0 W 22 30 12 16 1008.3 1007.9 2.8
23/06:00am 4.0 -1.9 3.9 99 0.0 W 24 32 13 17 1007.6 1007.2 2.8
23/05:30am 4.3 -1.2 4.2 99 0.0 W 22 33 12 18 1007.5 1007.1 2.8
23/05:00am 4.7 -1.4 4.6 99 0.0 W 26 33 14 18 1007.1 1006.6 2.8
23/04:30am 4.6 -2.3 4.5 99 0.0 W 30 41 16 22 1006.9 1006.4 2.8
23/04:00am 4.8 -2.1 4.7 99 0.0 W 30 41 16 22 1006.7 1006.3 2.8
23/03:30am 5.3 -1.1 5.2 99 0.0 W 28 39 15 21 1007.0 1006.5 2.8
23/03:00am 5.9 -0.8 5.8 99 0.0 W 30 37 16 20 1006.9 1006.4 2.8
23/02:30am 6.9 -0.1 6.8 99 0.0 WNW 33 44 18 24 1006.7 1006.3 2.8
23/02:10am 7.1 1.1 7.0 99 0.0 WNW 28 46 15 25 1006.7 1006.3 2.6
23/02:00am 7.3 2.9 7.2 99 0.0 WNW 20 39 11 21 1006.7 1006.3 2.6
23/01:30am 7.4 1.5 7.3 99 0.0 WNW 28 41 15 22 1007.1 1006.6 2.6
23/01:00am 7.9 2.5 7.8 99 0.1 NW 26 43 14 23 1007.1 1006.6 2.4
23/12:30am 8.1 4.0 8.0 99 0.1 NW 19 32 10 17 1007.1 1006.6 2.4
23/12:00am 8.2 3.6 8.1 99 0.1 NW 22 32 12 17 1006.9 1006.4 2.4
 
Date/Time
EDT
Temp
°C
App
Temp
°C
Dew
Point
Rel
Hum
%
Delta-T
°C
Wind Press
QNH
hPa
Press
MSL
hPa
Rain
since 9 am
mm
Dir
 
Spd
km/h
Gust
km/h
Spd
kts
Gust
kts
22/11:30pm 8.8 4.2 8.2 96 0.3 NNW 22 37 12 20 1007.0 1006.5 2.4
22/11:00pm 8.9 4.8 8.5 97 0.2 NNW 20 30 11 16 1006.9 1006.4 2.4
22/10:30pm 8.8 4.6 8.4 97 0.2 NNW 20 33 11 18 1007.0 1006.5 2.4
22/10:00pm 9.1 4.2 8.6 97 0.3 N 24 35 13 19 1006.9 1006.4 2.4
22/09:30pm 9.1 4.3 9.0 99 0.1 N 24 32 13 17 1006.6 1006.2 2.4
22/09:00pm 9.1 3.9 9.0 99 0.1 N 26 32 14 17 1006.3 1005.8 2.4
22/08:30pm 9.6 3.7 9.0 96 0.3 N 30 37 16 20 1006.2 1005.7 2.4
22/08:00pm 9.6 4.2 9.5 99 0.1 N 28 35 15 19 1006.1 1005.6 2.4
22/07:30pm 10.0 4.6 9.5 97 0.3 N 28 41 15 22 1006.0 1005.5 2.4
22/07:00pm 9.9 4.9 9.6 98 0.2 N 26 35 14 19 1006.1 1005.6 2.4
22/06:30pm 9.8 5.2 9.7 99 0.1 N 24 39 13 21 1006.2 1005.7 2.4
22/06:00pm 9.6 4.2 9.5 99 0.1 N 28 35 15 19 1006.3 1005.8 2.4
22/05:30pm 9.2 4.5 9.1 99 0.1 N 24 33 13 18 1006.3 1005.8 2.4
22/05:00pm 8.9 4.8 8.8 99 0.1 N 20 26 11 14 1006.5 1006.1 2.4
22/04:30pm 9.0 5.0 8.9 99 0.1 N 20 32 11 17 1006.6 1006.2 2.4
22/04:00pm 9.0 3.8 8.9 99 0.1 N 26 41 14 22 1006.7 1006.3 2.4
22/03:30pm 8.8 3.2 8.7 99 0.1 N 28 41 15 22 1006.9 1006.4 2.4
22/03:00pm 8.3 1.8 8.2 99 0.1 N 32 43 17 23 1007.5 1007.1 2.4
22/02:30pm 8.5 2.8 8.4 99 0.1 N 28 39 15 21 1007.6 1007.2 1.8
22/02:00pm 8.4 2.3 8.3 99 0.1 N 30 39 16 21 1007.7 1007.3 1.8
22/01:30pm 8.8 3.2 8.7 99 0.1 N 28 37 15 20 1008.2 1007.8 1.6
22/01:00pm 8.6 2.9 8.5 99 0.1 N 28 41 15 22 1008.2 1007.8 1.0
22/12:30pm 8.6 2.9 8.5 99 0.1 N 28 37 15 20 1008.3 1007.9 1.0
22/12:00pm 8.1 2.3 8.0 99 0.1 N 28 41 15 22 1008.4 1008.0 1.0
22/11:30am 7.4 0.7 7.3 99 0.0 N 32 48 17 26 1008.8 1008.3 1.0
22/11:00am 6.4 0.2 6.3 99 0.0 N 28 37 15 20 1008.5 1008.1 1.0
22/10:30am 6.1 -0.1 6.0 99 0.0 N 28 39 15 21 1008.6 1008.2 0.6
22/10:00am 5.6 -0.4 5.5 99 0.0 N 26 43 14 23 1008.6 1008.2 0.0
22/09:30am 5.2 -1.6 5.1 99 0.0 N 30 41 16 22 1008.8 1008.3 0.0
22/09:00am 5.0 -2.2 4.9 99 0.0 N 32 46 17 25 1008.6 1008.2 5.0
22/08:30am 4.2 -2.8 4.1 99 0.0 N 30 43 16 23 1008.5 1008.1 4.8
22/08:00am 4.2 -2.4 4.1 99 0.0 N 28 37 15 20 1008.8 1008.3 4.4
22/07:30am 4.1 -3.9 4.0 99 0.0 N 35 44 19 24 1009.0 1008.6 3.6
22/07:00am 3.9 -4.5 3.8 99 0.0 NNW 37 46 20 25 1009.0 1008.6 2.2
22/06:30am 3.9 -4.5 3.8 99 0.0 NNW 37 44 20 24 1008.8 1008.3 1.6
22/06:00am 3.9 -4.4 2.4 90 0.6 NNW 35 43 19 23 1008.5 1008.1 1.4
22/05:30am 4.6 -2.9 1.5 80 1.3 NNW 30 37 16 20 1008.6 1008.2 1.4
22/05:00am 4.7 -1.6 1.6 80 1.3 NNW 24 33 13 18 1008.4 1008.0 1.4
22/04:30am 5.1 -0.8 1.6 78 1.5 NNW 22 30 12 16 1008.0 1007.5 1.4
22/04:00am 4.9 -1.1 1.2 77 1.6 N 22 28 12 15 1008.0 1007.5 1.4
22/03:30am 5.6 -0.1 -0.9 63 2.6 N 19 26 10 14 1008.0 1007.5 1.4
22/03:06am 5.4 -2.1 -1.3 62 2.7 NNW 28 48 15 26 1008.3 1007.9 1.4
22/03:00am 6.0 -1.9 -1.9 57 3.1 NNW 30 48 16 26 1008.2 1007.8 1.4
22/02:30am 5.8 -1.0 -1.6 59 2.9 NNW 24 37 13 20 1008.3 1007.9 1.4
22/02:00am 4.2 -2.0 -0.2 73 1.8 N 22 28 12 15 1008.5 1008.1 1.4
22/01:30am 4.3 -2.7 -0.3 72 1.9 N 26 33 14 18 1009.1 1008.7 1.4
22/01:00am 5.0 -1.7 -1.2 64 2.5 NNW 24 37 13 20 1009.4 1009.0 1.4
22/12:30am 3.6 -3.1 1.2 84 1.0 N 26 33 14 18 1009.6 1009.3 1.4
22/12:00am 3.3 -2.9 2.0 91 0.6 N 24 32 13 17 1009.9 1009.5 1.4
 
Date/Time
EDT
Temp
°C
App
Temp
°C
Dew
Point
Rel
Hum
%
Delta-T
°C
Wind Press
QNH
hPa
Press
MSL
hPa
Rain
since 9 am
mm
Dir
 
Spd
km/h
Gust
km/h
Spd
kts
Gust
kts
21/11:30pm 2.4 -3.0 2.3 99 0.0 N 20 24 11 13 1010.2 1009.8 1.4
21/11:00pm 2.6 -3.2 2.2 97 0.2 N 22 26 12 14 1010.4 1010.1 1.4
21/10:30pm 2.6 -2.3 1.7 94 0.4 NNW 17 24 9 13 1010.8 1010.4 1.4
21/10:00pm 2.8 -3.9 1.2 89 0.7 NW 26 35 14 19 1010.5 1010.2 1.4
21/09:30pm 2.7 -4.8 1.4 91 0.5 WNW 30 35 16 19 1010.2 1009.8 1.4
21/09:00pm 3.0 -3.5 2.6 97 0.2 NW 26 32 14 17 1010.0 1009.6 1.4
21/08:30pm 3.4 -3.1 2.4 93 0.4 WNW 26 30 14 16 1009.9 1009.5 1.4
21/08:00pm 4.1 -1.4 2.0 86 0.9 WNW 20 24 11 13 1009.6 1009.3 1.4
21/07:30pm 5.2 0.0 2.7 84 1.1 WNW 19 22 10 12 1009.4 1009.0 1.4
21/07:00pm 5.7 0.9 2.4 79 1.5 WNW 17 20 9 11 1009.1 1008.7 1.4
21/06:30pm 6.3 2.3 2.9 79 1.5 WNW 13 19 7 10 1008.8 1008.3 1.4
21/06:00pm 6.4 2.0 2.9 78 1.6 WNW 15 22 8 12 1008.5 1008.1 1.4
21/05:30pm 7.4 3.3 4.2 80 1.5 WNW 15 20 8 11 1008.4 1008.0 1.4
21/05:00pm 7.1 2.9 3.9 80 1.5 W 15 26 8 14 1008.2 1007.8 1.4
21/04:30pm 7.2 2.8 4.7 84 1.2 W 17 24 9 13 1008.2 1007.8 1.4
21/04:00pm 5.8 2.1 4.3 90 0.7 W 13 20 7 11 1008.2 1007.8 1.4
21/03:30pm 6.3 1.5 4.8 90 0.7 W 19 30 10 16 1008.0 1007.5 1.4
21/03:00pm 6.6 2.5 6.2 97 0.2 WNW 17 22 9 12 1008.0 1007.5 1.4
21/02:30pm 4.7 -0.7 4.6 99 0.0 W 22 32 12 17 1007.7 1007.3 1.4
21/02:00pm 4.5 -0.9 4.4 99 0.0 WSW 22 32 12 17 1007.6 1007.2 1.4
21/01:30pm 4.0 -0.2 3.9 99 0.0 SW 15 30 8 16 1007.3 1006.9 1.4
21/01:00pm 3.2 -1.9 3.1 99 0.0 SW 19 30 10 16 1007.2 1006.7 1.4
21/12:30pm 3.0 -3.1 2.9 99 0.0 SW 24 35 13 19 1006.9 1006.4 1.4
21/12:00pm 3.3 -3.1 3.2 99 0.0 SW 26 32 14 17 1006.3 1005.8 1.4
21/11:30am 3.2 -2.8 3.1 99 0.0 SW 24 30 13 16 1006.2 1005.7 1.0
21/11:00am 3.3 -4.2 3.2 99 0.0 SW 32 41 17 22 1005.7 1005.2 0.8
21/10:30am 3.9 -2.8 3.8 99 0.0 SSW 28 43 15 23 1005.5 1005.0 0.6
21/10:00am 3.6 -2.4 3.5 99 0.0 SW 24 33 13 18 1005.5 1005.0 0.2
21/09:30am 3.6 -2.0 3.5 99 0.0 SW 22 32 12 17 1005.4 1004.9 0.0
21/09:00am 3.3 -3.9 3.2 99 0.0 WSW 30 37 16 20 1004.7 1004.2 6.0
21/08:30am 3.3 -4.8 3.2 99 0.0 SW 35 46 19 25 1004.3 1003.8 6.0
21/08:00am 3.8 -5.4 3.7 99 0.0 WSW 41 52 22 28 1003.8 1003.3 5.8
21/07:30am 4.9 -1.2 4.8 99 0.0 SW 26 37 14 20 1003.4 1002.8 5.2
21/07:00am 4.8 -2.7 4.7 99 0.0 WSW 33 41 18 22 1003.3 1002.7 4.8
21/06:30am 5.0 -1.8 4.9 99 0.0 SW 30 35 16 19 1002.7 1002.2 4.4
21/06:00am 5.5 -0.1 5.4 99 0.0 WSW 24 39 13 21 1002.5 1001.9 4.0
21/05:30am 5.7 -0.2 5.6 99 0.0 WSW 26 35 14 19 1002.1 1001.5 3.6
21/05:00am 6.0 0.9 5.9 99 0.0 WSW 22 35 12 19 1002.1 1001.5 3.6
21/04:30am 6.6 1.2 6.5 99 0.0 W 24 35 13 19 1001.9 1001.4 3.4
21/04:00am 6.8 1.5 6.7 99 0.0 W 24 33 13 18 1001.6 1001.0 3.0
21/03:30am 7.0 1.3 6.9 99 0.0 WNW 26 37 14 20 1001.5 1000.9 2.8
21/03:00am 6.8 1.1 6.7 99 0.0 WNW 26 44 14 24 1001.7 1001.1 2.8
21/02:30am 7.1 1.8 7.0 99 0.0 NW 24 35 13 19 1001.8 1001.2 2.6
21/02:00am 7.0 1.0 6.9 99 0.0 NW 28 39 15 21 1002.1 1001.5 2.4
21/01:30am 7.0 2.5 6.9 99 0.0 NW 20 35 11 19 1002.4 1001.8 2.4
21/01:00am 7.2 2.3 7.1 99 0.0 NNW 22 35 12 19 1002.4 1001.8 2.4
21/12:30am 7.6 3.2 7.5 99 0.1 NNW 20 30 11 16 1002.3 1001.7 2.2
21/12:00am 7.7 3.0 7.6 99 0.1 NNW 22 35 12 19 1002.6 1002.0 2.2
 
Date/Time
EDT
Temp
°C
App
Temp
°C
Dew
Point
Rel
Hum
%
Delta-T
°C
Wind Press
QNH
hPa
Press
MSL
hPa
Rain
since 9 am
mm
Dir
 
Spd
km/h
Gust
km/h
Spd
kts
Gust
kts
20/11:30pm 8.0 2.6 7.9 99 0.1 NNW 26 37 14 20 1002.6 1002.0 1.8
20/11:00pm 8.3 2.9 8.2 99 0.1 NNW 26 35 14 19 1002.7 1002.2 1.8
20/10:30pm 8.4 1.9 8.3 99 0.1 N 32 41 17 22 1002.8 1002.3 1.8
20/10:00pm 8.6 2.9 8.5 99 0.1 NNW 28 41 15 22 1002.8 1002.3 1.8
20/09:30pm 8.5 2.1 8.4 99 0.1 NNW 32 48 17 26 1003.0 1002.4 1.8
20/09:15pm 8.6 2.9 8.5 99 0.1 NNW 28 48 15 26 1002.7 1002.2 1.8
20/09:00pm 9.0 3.4 8.9 99 0.1 NNW 28 44 15 24 1002.6 1002.0 1.8
20/08:37pm 9.0 3.4 8.9 99 0.1 NNW 28 59 15 32 1002.5 1001.9 1.6
20/08:30pm 9.3 4.6 9.2 99 0.1 NNW 24 39 13 21 1002.7 1002.2 1.6
20/08:14pm 9.4 3.9 9.3 99 0.1 NNW 28 46 15 25 1002.6 1002.0 1.4
20/08:00pm 9.4 3.0 9.3 99 0.1 NNW 33 46 18 25 1002.5 1001.9 1.2
20/07:30pm 9.2 2.7 9.1 99 0.1 N 33 46 18 25 1002.3 1001.7 0.6
20/07:00pm 8.8 2.8 8.7 99 0.1 N 30 46 16 25 1002.3 1001.7 0.6
20/06:30pm 8.7 1.7 8.6 99 0.1 N 35 46 19 25 1002.5 1001.9 0.6
20/06:00pm 9.3 3.7 8.7 96 0.3 N 28 37 15 20 1002.8 1002.3 0.4
20/05:30pm 9.9 4.5 9.6 98 0.2 N 28 39 15 21 1003.1 1002.5 0.4
20/05:00pm 10.9 5.1 9.5 91 0.8 N 30 39 16 21 1003.2 1002.6 0.0
20/04:30pm 11.0 4.9 9.6 91 0.7 N 32 48 17 26 1003.7 1003.2 0.0
20/04:00pm 11.7 6.2 9.3 85 1.3 NNW 28 37 15 20 1004.0 1003.4 0.0
20/03:30pm 11.7 5.8 9.1 84 1.4 NNW 30 39 16 21 1003.8 1003.3 0.0
20/03:00pm 11.6 6.0 8.6 82 1.6 N 28 35 15 19 1004.0 1003.4 0.0
20/02:30pm 11.9 6.2 8.2 78 1.9 N 28 35 15 19 1004.2 1003.6 0.0
20/02:00pm 12.6 6.9 8.5 76 2.2 N 28 35 15 19 1004.3 1003.8 0.0
20/01:30pm 11.0 5.9 7.5 79 1.8 N 24 32 13 17 1004.6 1004.1 0.0
20/01:00pm 11.1 5.8 7.0 76 2.1 N 24 33 13 18 1004.8 1004.3 0.0
20/12:30pm 11.4 6.4 6.3 71 2.6 N 22 32 12 17 1005.0 1004.4 0.0
20/12:00pm 10.8 6.7 6.0 72 2.4 N 17 22 9 12 1005.5 1005.0 0.0
20/11:30am 9.5 3.2 5.5 76 1.9 N 28 35 15 19 1006.0 1005.5 0.0
20/11:00am 9.3 2.9 5.3 76 1.9 N 28 33 15 18 1006.3 1005.8 0.0

Other Formats:

Comma delimited format used in spreadsheet applications
http://www.bom.gov.au/fwo/IDT60801/IDT60801.95952.axf

JavaScript Object Notation format (JSON) in row-major order
http://www.bom.gov.au/fwo/IDT60801/IDT60801.95952.json